Time;durP1;ratioP1;P1;durP2;ratioP2;P2;SDS_P1;SDS_P2;PMS_P1;PMS_P2;Temp;Humidity;BMP_temperature;BMP_pressure;BME280_temperature;BME280_humidity;BME280_pressure;Samples;Min_cycle;Max_cycle;Signal;HPM_P1;HPM_P2
2023/10/27 00:02:23;;;;;;;22.38;12.85;;;14.80;99.90;;;-144.05;86.72;57025.13;4993911;28;20053;-79
2023/10/27 00:04:49;;;;;;;25.58;12.90;;;7.50;99.90;;;-144.05;86.87;57010.25;4994094;28;20037;-78
2023/10/27 00:07:15;;;;;;;20.98;11.13;;;7.30;99.90;;;-144.05;86.81;56976.28;4993951;28;20056;-78
2023/10/27 00:09:41;;;;;;;21.58;12.27;;;8.20;99.90;;;-144.05;87.02;56984.78;4994121;28;20426;-79
2023/10/27 00:12:07;;;;;;;17.88;10.00;;;8.00;99.90;;;-144.05;87.22;56989.00;4994028;28;20026;-79
2023/10/27 00:14:34;;;;;;;19.83;11.20;;;7.50;99.90;;;-144.05;87.07;56989.00;5011427;28;20124;-79
2023/10/27 00:17:00;;;;;;;18.92;10.68;;;;;;;-144.05;87.28;56993.25;5011579;28;20029;-81
2023/10/27 00:19:26;;;;;;;17.83;10.57;;;11.60;99.90;;;-144.05;87.45;56984.78;5011441;28;20077;-78
2023/10/27 00:21:52;;;;;;;20.50;10.82;;;8.00;99.90;;;-144.05;87.45;56993.25;5011652;28;20018;-79
2023/10/27 00:24:18;;;;;;;21.23;12.63;;;7.50;99.90;;;-144.05;87.55;56999.63;5011489;28;20030;-79
2023/10/27 00:26:44;;;;;;;23.25;12.52;;;15.30;99.90;;;-144.05;87.38;56995.38;5011622;28;20030;-78
2023/10/27 00:29:10;;;;;;;21.80;12.82;;;;;;;-144.05;87.23;57006.00;5012054;28;20214;-79
2023/10/27 00:31:37;;;;;;;21.55;12.02;;;;;;;-144.05;87.48;56995.38;5011355;28;20037;-79
2023/10/27 00:34:02;;;;;;;17.75;11.07;;;14.80;99.90;;;-144.05;87.42;57016.63;5011891;28;20025;-80
2023/10/27 00:36:28;;;;;;;21.88;11.45;;;8.20;99.90;;;-144.05;87.43;57020.88;5012022;28;20549;-79
2023/10/27 00:38:54;;;;;;;21.30;11.77;;;;;;;-144.05;87.37;56999.63;5012400;28;20029;-78
2023/10/27 00:41:23;;;;;;;18.23;11.20;;;;;;;-144.05;87.37;57027.25;5012141;28;20201;-79
2023/10/27 00:43:49;;;;;;;20.30;12.23;;;7.60;99.90;;;-144.05;87.21;57003.88;5011920;28;20080;-79
2023/10/27 00:46:16;;;;;;;17.42;11.13;;;14.80;99.90;;;-144.05;86.80;56997.50;4994200;28;20033;-79
2023/10/27 00:48:42;;;;;;;20.42;10.75;;;11.20;99.90;;;-144.05;86.78;57003.88;5011668;28;20029;-78
2023/10/27 00:51:09;;;;;;;19.77;11.73;;;14.80;99.90;;;-144.05;86.93;57001.75;5011562;28;20523;-78
2023/10/27 00:53:37;;;;;;;18.58;11.05;;;7.20;99.90;;;-144.05;87.29;56938.03;5011646;28;20026;-79
2023/10/27 00:56:04;;;;;;;17.52;10.98;;;7.80;99.90;;;-144.05;87.33;56986.91;5011299;28;20041;-79
2023/10/27 00:58:31;;;;;;;19.92;11.50;;;9.70;99.90;;;-144.05;87.06;56991.13;5011160;28;20083;-79
2023/10/27 01:01:03;;;;;;;19.17;11.10;;;7.30;99.90;;;-144.05;86.92;56991.13;5011389;28;20022;-79
2023/10/27 01:03:30;;;;;;;17.88;10.30;;;7.40;99.90;;;-144.05;87.05;56999.63;5011355;28;20436;-76
2023/10/27 01:05:55;;;;;;;17.13;10.55;;;7.70;99.90;;;-144.05;86.92;57008.13;5011510;28;20034;-78
2023/10/27 01:08:22;;;;;;;19.38;10.85;;;;;;;-144.05;87.03;57010.25;5011292;28;20470;-79
2023/10/27 01:10:48;;;;;;;19.20;10.43;;;7.90;99.90;;;-144.05;87.13;57012.38;4993891;28;20026;-78
2023/10/27 01:13:14;;;;;;;13.82;9.77;;;7.80;99.90;;;-144.05;87.32;57014.50;5011063;28;20029;-79
2023/10/27 01:15:40;;;;;;;20.58;11.60;;;7.50;99.90;;;-144.05;87.41;57010.25;5011386;28;20178;-79
2023/10/27 01:18:06;;;;;;;17.42;10.75;;;7.80;99.90;;;-144.05;87.35;56995.38;5011494;28;20403;-78
2023/10/27 01:20:32;;;;;;;16.38;10.35;;;;;;;-144.05;87.49;56997.50;5011134;28;20069;-79
2023/10/27 01:23:01;;;;;;;16.48;9.55;;;;;;;-144.05;87.29;57016.63;4993705;28;20439;-79
2023/10/27 01:25:27;;;;;;;19.83;11.93;;;;;;;-144.05;87.67;57023.00;4993450;28;20034;-78
2023/10/27 01:27:53;;;;;;;18.30;10.13;;;7.70;99.90;;;-144.05;87.72;57001.75;5011432;28;20037;-79
2023/10/27 01:30:19;;;;;;;17.42;11.23;;;;;;;-144.05;87.65;57010.25;5011042;28;20399;-79
2023/10/27 01:32:45;;;;;;;17.83;10.35;;;7.80;99.90;;;-144.05;87.60;56997.50;5011206;28;20061;-79
2023/10/27 01:35:11;;;;;;;23.25;13.20;;;7.50;99.90;;;-144.05;87.87;57023.00;4993604;28;20041;-78
2023/10/27 01:37:37;;;;;;;24.00;12.98;;;11.10;99.90;;;-144.05;88.58;57027.25;5011500;28;20037;-78
2023/10/27 01:40:05;;;;;;;24.77;14.45;;;7.50;99.90;;;-144.05;88.38;57006.00;5011015;28;20030;-77
2023/10/27 01:42:34;;;;;;;24.20;13.35;;;;;;;-144.05;88.87;56972.03;5011304;28;20034;-78
2023/10/27 01:45:06;;;;;;;24.85;13.70;;;11.20;99.90;;;-144.05;88.63;56989.00;5013373;28;20025;-78
2023/10/27 01:47:33;;;;;;;23.80;13.52;;;7.10;99.90;;;-144.05;89.09;57010.25;5015090;28;20076;-78
2023/10/27 01:49:59;;;;;;;30.88;15.85;;;14.80;99.90;;;-144.05;88.99;57016.63;5014698;28;20029;-80
2023/10/27 01:52:25;;;;;;;28.05;14.68;;;11.40;99.90;;;-144.05;88.93;57023.00;5014549;28;20030;-78
2023/10/27 01:54:53;;;;;;;28.70;15.25;;;;;;;-144.05;88.70;57020.88;5014541;28;20038;-78
2023/10/27 01:57:22;;;;;;;26.98;14.75;;;7.40;99.90;;;-144.05;88.93;56999.63;5014425;28;20033;-79
2023/10/27 01:59:49;;;;;;;23.60;14.68;;;14.80;99.90;;;-144.05;88.80;57003.88;5014315;28;20026;-78
2023/10/27 02:02:16;;;;;;;28.90;14.55;;;;;;;-144.05;88.85;57018.75;5014175;28;20100;-79
2023/10/27 02:04:42;;;;;;;26.08;15.25;;;;;;;-144.05;89.11;57008.13;5013966;28;20033;-79
2023/10/27 02:07:09;;;;;;;30.17;14.88;;;;;;;-144.05;89.08;57010.25;5013902;28;20038;-79
2023/10/27 02:09:34;;;;;;;26.00;14.20;;;7.10;99.90;;;-144.05;89.19;57006.00;4993153;28;20042;-81
2023/10/27 02:12:02;;;;;;;28.00;15.60;;;;;;;-144.05;89.11;57027.25;5010689;28;20103;-79
2023/10/27 02:14:29;;;;;;;25.95;15.10;;;;;;;-144.05;89.18;57035.75;4995983;28;20038;-79
2023/10/27 02:16:55;;;;;;;32.33;15.80;;;11.40;99.90;;;-144.05;89.23;56976.28;5014285;28;20438;-80
2023/10/27 02:19:21;;;;;;;22.83;13.35;;;7.70;99.90;;;-144.05;89.06;56991.13;5014334;28;20404;-80
2023/10/27 02:21:46;;;;;;;27.63;14.80;;;7.10;99.90;;;-144.05;88.66;56997.50;4996455;28;20045;-79
2023/10/27 02:24:13;;;;;;;33.63;15.30;;;;;;;-144.05;88.69;57020.88;5014072;28;20056;-79
2023/10/27 02:26:39;;;;;;;25.42;14.60;;;11.30;99.90;;;-144.05;88.62;57001.75;5013967;28;20502;-79
2023/10/27 02:29:06;;;;;;;24.17;14.25;;;7.10;99.90;;;-144.05;88.79;56989.00;5013578;28;20030;-79
2023/10/27 02:31:31;;;;;;;30.45;14.85;;;11.40;99.90;;;-144.05;88.71;57016.63;5013964;28;20080;-79
2023/10/27 02:33:58;;;;;;;28.17;15.50;;;;;;;-144.05;88.53;57020.88;5013487;28;20026;-79
2023/10/27 02:36:25;;;;;;;25.63;15.25;;;;;;;-144.05;88.88;56999.63;5015345;28;20028;-84
2023/10/27 02:38:51;;;;;;;30.20;15.93;;;11.20;99.90;;;-144.05;88.79;56980.53;5020412;28;20044;-83
2023/10/27 02:41:17;;;;;;;30.42;15.85;;;;;;;-144.05;88.65;56993.25;5019713;28;20026;-82
2023/10/27 02:43:43;;;;;;;28.10;15.23;;;7.40;99.90;;;-144.05;89.36;56967.78;5019784;28;20430;-82
2023/10/27 02:46:12;;;;;;;30.50;15.07;;;14.60;99.90;;;-144.05;88.82;57012.38;5019991;28;20083;-80
2023/10/27 02:48:41;;;;;;;26.25;14.27;;;7.20;99.90;;;-144.05;88.48;57018.75;5001698;28;20030;-81
2023/10/27 02:51:08;;;;;;;25.20;14.07;;;;;;;-144.05;88.58;57012.38;5018825;28;20569;-81
2023/10/27 02:53:35;;;;;;;29.13;14.63;;;;;;;-144.05;88.31;56989.00;5018988;28;20026;-80
2023/10/27 02:56:09;;;;;;;32.65;14.27;;;7.70;99.90;;;-144.05;88.51;56984.78;5017484;28;20050;-78
2023/10/27 02:58:36;;;;;;;26.10;14.55;;;14.60;99.90;;;-144.05;88.28;57001.75;5017971;28;20029;-78
2023/10/27 03:01:10;;;;;;;23.27;12.50;;;11.20;99.90;;;-144.05;88.25;57001.75;5000105;28;20026;-79
2023/10/27 03:03:36;;;;;;;26.80;13.45;;;7.40;99.90;;;-144.05;88.05;56967.78;4999411;28;20030;-80
2023/10/27 03:06:03;;;;;;;20.55;11.50;;;9.60;99.90;;;-144.05;88.07;57006.00;5017542;28;20026;-80
2023/10/27 03:08:32;;;;;;;21.70;11.27;;;;;;;-144.05;88.12;56991.13;5017063;28;20025;-81
2023/10/27 03:10:58;;;;;;;21.83;12.13;;;11.20;99.90;;;-144.05;88.22;56995.38;4999061;28;20052;-80
2023/10/27 03:13:24;;;;;;;23.55;13.25;;;11.40;99.90;;;-144.05;88.10;56991.13;4998078;28;20030;-79
2023/10/27 03:15:50;;;;;;;24.75;14.25;;;8.50;99.90;;;-144.05;88.13;56999.63;4996887;28;20518;-80
2023/10/27 03:18:15;;;;;;;24.48;11.77;;;8.60;99.90;;;-144.05;88.40;57012.38;5013580;28;20101;-81
2023/10/27 03:20:41;;;;;;;25.75;12.98;;;7.60;99.90;;;-144.05;88.36;57012.38;4996377;28;20499;-81
2023/10/27 03:23:07;;;;;;;23.52;12.02;;;11.30;99.90;;;-144.05;88.38;57010.25;5015169;28;20029;-80
2023/10/27 03:25:33;;;;;;;19.92;11.23;;;7.40;99.90;;;-144.05;88.49;57027.25;5014265;28;20041;-80
2023/10/27 03:27:59;;;;;;;21.42;10.50;;;;;;;-144.05;88.14;56997.50;4996832;28;20665;-80
2023/10/27 03:30:26;;;;;;;19.90;11.13;;;;;;;-144.05;88.29;57016.63;5013782;28;20030;-78
2023/10/27 03:32:52;;;;;;;25.77;12.02;;;7.60;99.90;;;-144.05;88.58;56980.53;5013706;28;20435;-78
2023/10/27 03:35:18;;;;;;;25.30;11.68;;;8.30;99.90;;;-144.05;88.57;57001.75;5012984;28;20117;-79
2023/10/27 03:37:44;;;;;;;26.67;12.07;;;7.90;99.90;;;-144.05;88.73;56980.53;4994733;28;20033;-80
2023/10/27 03:40:11;;;;;;;22.17;11.35;;;7.70;99.90;;;-144.05;88.26;57031.50;4994539;28;20034;-79
2023/10/27 03:42:36;;;;;;;17.88;10.38;;;7.70;99.90;;;-144.05;88.07;57016.63;4994840;28;20076;-79
2023/10/27 03:45:04;;;;;;;17.88;10.00;;;;;;;-144.05;87.93;57006.00;5012421;28;20025;-78
2023/10/27 03:47:30;;;;;;;19.48;10.93;;;;;;;-144.05;87.91;56982.66;5012521;28;20038;-78
2023/10/27 03:49:56;;;;;;;23.42;10.15;;;7.30;99.90;;;-144.05;87.57;57001.75;4995298;28;20022;-79
2023/10/27 03:52:22;;;;;;;18.95;9.48;;;15.00;99.90;;;-144.05;87.60;56993.25;5012847;28;20018;-78
2023/10/27 03:54:48;;;;;;;17.70;8.80;;;;;;;-144.05;87.28;56976.28;5012918;28;20060;-79
2023/10/27 03:57:14;;;;;;;17.83;8.38;;;;;;;-144.05;86.95;56976.28;5013294;28;20026;-78
2023/10/27 03:59:40;;;;;;;16.02;8.32;;;7.80;99.90;;;-144.05;86.95;57018.75;5012797;28;20460;-79
2023/10/27 04:02:06;;;;;;;15.20;8.43;;;8.60;99.90;;;-144.05;86.98;57029.38;5012754;28;20021;-79
2023/10/27 04:04:33;;;;;;;12.93;7.22;;;;;;;-144.05;86.89;56972.03;5013210;28;20372;-78
2023/10/27 04:07:00;;;;;;;17.17;8.10;;;8.10;99.90;;;-144.05;86.80;56989.00;5012905;28;20028;-79
2023/10/27 04:09:26;;;;;;;18.50;8.98;;;7.80;99.90;;;-144.05;86.14;57003.88;5013340;28;20037;-78
2023/10/27 04:11:52;;;;;;;16.08;9.02;;;;;;;-144.05;86.04;57023.00;5013447;28;20034;-78
2023/10/27 04:14:19;;;;;;;14.55;8.25;;;;;;;-144.05;86.17;57020.88;5012794;28;20034;-79
2023/10/27 04:16:46;;;;;;;18.90;9.52;;;;;;;-144.05;86.34;56980.53;5013235;28;20407;-79
2023/10/27 04:19:12;;;;;;;16.30;8.02;;;;;;;-144.05;86.53;56957.16;5012402;28;20242;-82
2023/10/27 04:21:38;;;;;;;11.75;7.07;;;7.90;99.90;;;-144.05;86.44;57010.25;4995837;28;20030;-80
2023/10/27 04:24:05;;;;;;;14.63;8.55;;;;;;;-144.05;86.45;56993.25;4996166;28;20084;-79
2023/10/27 04:26:31;;;;;;;19.27;9.07;;;7.80;99.90;;;-144.05;86.45;57010.25;5014478;28;20089;-79
2023/10/27 04:28:57;;;;;;;20.10;9.65;;;;;;;-144.05;86.21;57018.75;5013275;28;20061;-81
2023/10/27 04:31:23;;;;;;;17.00;9.25;;;7.20;99.90;;;-144.05;85.80;57003.88;5012898;28;20546;-79
2023/10/27 04:33:49;;;;;;;19.58;9.30;;;7.60;99.90;;;-144.05;85.66;56984.78;5013653;28;20443;-80
2023/10/27 04:36:16;;;;;;;16.92;9.32;;;;;;;-144.05;85.63;57010.25;4998405;28;20037;-80
2023/10/27 04:38:42;;;;;;;19.17;9.30;;;7.80;99.90;;;-144.05;85.67;57003.88;5025358;28;20113;-81
2023/10/27 04:41:09;;;;;;;16.55;8.98;;;8.80;99.90;;;-144.05;86.11;56986.91;5032178;28;20097;-81
2023/10/27 04:43:35;;;;;;;20.02;8.80;;;8.10;99.90;;;-144.05;86.26;56995.38;5032389;28;20022;-80
2023/10/27 04:46:02;;;;;;;21.27;8.88;;;;;;;-144.05;86.50;56993.25;5023331;28;20514;-77
2023/10/27 04:48:28;;;;;;;19.00;9.10;;;;;;;-144.05;86.59;56976.28;5012145;28;20117;-80
2023/10/27 04:50:58;;;;;;;17.58;9.32;;;7.70;99.90;;;-144.05;86.76;56978.41;5012557;28;20491;-76
2023/10/27 04:53:25;;;;;;;13.25;8.75;;;;;;;-144.05;86.83;57012.38;5012760;28;20391;-78
2023/10/27 04:55:51;;;;;;;15.77;9.10;;;;;;;-144.05;86.79;56982.66;5012821;28;20030;-78
2023/10/27 04:58:17;;;;;;;15.65;8.80;;;7.90;99.90;;;-144.05;87.01;56972.03;5013018;28;20088;-80
2023/10/27 05:00:43;;;;;;;18.90;9.27;;;11.30;99.90;;;-144.05;87.23;57023.00;5012564;28;20491;-78
2023/10/27 05:03:09;;;;;;;17.38;8.90;;;;;;;-144.05;87.22;57006.00;5012518;28;20120;-78
2023/10/27 05:05:35;;;;;;;18.67;9.13;;;;;;;-144.05;87.10;57006.00;5012220;28;20041;-78
2023/10/27 05:08:02;;;;;;;11.73;7.18;;;;;;;-144.05;87.18;56997.50;5012466;28;20033;-79
2023/10/27 05:10:28;;;;;;;14.25;7.43;;;;;;;-144.05;87.20;56991.13;5012203;28;20030;-79
2023/10/27 05:12:55;;;;;;;13.20;8.02;;;7.70;99.90;;;-144.05;87.15;57001.75;5012363;28;20034;-78
2023/10/27 05:15:21;;;;;;;21.20;9.05;;;;;;;-144.05;87.29;57012.38;5012374;28;20033;-78
2023/10/27 05:17:47;;;;;;;19.58;9.57;;;11.20;99.90;;;-144.05;87.52;56991.13;5013377;28;20037;-78
2023/10/27 05:20:13;;;;;;;20.13;10.63;;;7.90;99.90;;;-144.05;87.20;56997.50;5001675;28;20491;-77
2023/10/27 05:22:39;;;;;;;28.65;11.30;;;7.50;99.90;;;-144.05;86.94;57006.00;5017060;28;20479;-78
2023/10/27 05:25:06;;;;;;;23.17;10.00;;;7.30;99.90;;;-144.05;86.88;56997.50;5017723;28;20493;-80
2023/10/27 05:27:35;;;;;;;20.55;10.23;;;;;;;-144.05;86.67;57006.00;5016605;28;20088;-80
2023/10/27 05:30:03;;;;;;;18.67;8.25;;;8.80;99.90;;;-144.05;86.85;57014.50;5016989;28;20030;-78
2023/10/27 05:32:29;;;;;;;20.02;8.10;;;7.30;99.90;;;-144.05;87.10;57008.13;5016665;28;20033;-78
2023/10/27 05:34:56;;;;;;;12.30;7.78;;;7.90;99.90;;;-144.05;87.37;56989.00;4999340;28;20053;-78
2023/10/27 05:37:22;;;;;;;17.70;8.10;;;7.40;99.90;;;-144.05;87.61;57012.38;5017011;28;20563;-79
2023/10/27 05:39:48;;;;;;;17.88;7.63;;;;;;;-144.05;87.57;57010.25;5015620;28;20034;-79
2023/10/27 05:42:15;;;;;;;16.08;6.82;;;7.70;99.90;;;-144.05;87.51;57031.50;5016980;28;20040;-77
2023/10/27 05:44:41;;;;;;;17.58;7.63;;;7.60;99.90;;;-144.05;87.53;56950.78;5018281;28;20034;-78
2023/10/27 05:47:07;;;;;;;17.88;7.57;;;7.40;99.90;;;-144.05;87.76;57014.50;5000754;28;20445;-78
2023/10/27 05:49:33;;;;;;;14.48;7.20;;;;;;;-144.05;87.71;56993.25;5018987;28;20079;-76
2023/10/27 05:52:02;;;;;;;17.98;7.55;;;;;;;-144.05;87.63;57035.75;5018441;28;20026;-78
2023/10/27 05:54:31;;;;;;;16.15;7.35;;;7.70;99.90;;;-144.05;87.18;57010.25;5021193;28;20050;-76
2023/10/27 05:56:57;;;;;;;17.75;8.20;;;7.80;99.90;;;-144.05;87.45;56999.63;5017611;28;20030;-78
2023/10/27 05:59:23;;;;;;;18.00;7.65;;;8.30;99.90;;;-144.05;87.33;56997.50;5018577;28;20116;-77
2023/10/27 06:01:53;;;;;;;24.95;7.38;;;8.40;99.90;;;-144.05;87.37;57010.25;5018444;28;20026;-78
2023/10/27 06:04:19;;;;;;;14.85;6.93;;;;;;;-144.05;87.42;56974.16;5018871;28;20053;-76
2023/10/27 06:06:45;;;;;;;14.75;7.07;;;7.70;99.90;;;-144.05;87.33;56997.50;5016725;28;20450;-80
2023/10/27 06:09:11;;;;;;;19.83;7.63;;;7.90;99.90;;;-144.05;87.57;57014.50;4998283;28;20030;-79
2023/10/27 06:11:37;;;;;;;15.13;6.32;;;14.80;99.90;;;-144.05;87.39;56997.50;5015669;28;20145;-78
2023/10/27 06:14:03;;;;;;;10.30;6.38;;;7.60;99.90;;;-144.05;87.53;56989.00;5013907;28;20026;-80
2023/10/27 06:16:30;;;;;;;13.80;6.47;;;8.00;99.90;;;-144.05;87.42;57018.75;5015027;28;20030;-80
2023/10/27 06:18:56;;;;;;;17.13;6.75;;;8.20;99.90;;;-144.05;87.37;56993.25;5014802;28;20026;-79
2023/10/27 06:21:24;;;;;;;15.60;5.97;;;8.10;99.90;;;-144.05;87.20;56993.25;5017542;28;20037;-80
2023/10/27 06:23:50;;;;;;;13.63;5.80;;;8.00;99.90;;;-144.05;87.23;57025.13;5021488;28;20026;-78
2023/10/27 06:26:16;;;;;;;17.13;5.97;;;8.30;99.90;;;-144.05;87.18;56999.63;5015644;28;20029;-79
2023/10/27 06:28:41;;;;;;;21.17;6.10;;;14.50;99.90;;;-144.05;86.91;57016.63;4997679;28;20030;-79
2023/10/27 06:31:09;;;;;;;10.65;5.55;;;15.00;99.90;;;-144.05;86.92;56989.00;5015131;28;20025;-78
2023/10/27 06:33:36;;;;;;;15.60;6.50;;;;;;;-144.05;87.00;56995.38;5015672;28;20080;-77
2023/10/27 06:36:04;;;;;;;12.82;6.72;;;8.10;99.90;;;-144.05;86.81;57001.75;5015353;28;20033;-77
2023/10/27 06:38:30;;;;;;;13.70;6.25;;;8.40;99.90;;;-144.05;86.95;56989.00;5015079;28;20025;-78
2023/10/27 06:40:56;;;;;;;17.40;5.97;;;;;;;-144.05;86.90;56995.38;5015664;28;20381;-78
2023/10/27 06:43:26;;;;;;;15.10;6.18;;;14.90;99.90;;;-144.05;86.72;57016.63;5015467;28;20033;-81
2023/10/27 06:45:52;;;;;;;14.45;6.45;;;7.50;99.90;;;-144.05;86.76;56974.16;5015859;28;20030;-80
2023/10/27 06:48:19;;;;;;;12.85;6.47;;;;;;;-144.05;86.57;56974.16;5015510;28;20091;-79
2023/10/27 06:50:44;;;;;;;20.23;6.90;;;14.40;99.90;;;-144.05;86.64;57003.88;5016028;28;20108;-80
2023/10/27 06:53:11;;;;;;;17.52;7.93;;;;;;;-144.05;86.47;56989.00;4997523;28;20095;-81
2023/10/27 06:55:36;;;;;;;17.65;7.05;;;8.00;99.90;;;-144.05;86.59;57023.00;5015119;28;20025;-76
2023/10/27 06:58:04;;;;;;;13.25;6.30;;;8.50;99.90;;;-144.05;86.47;56955.03;5015500;28;20033;-78
2023/10/27 07:00:31;;;;;;;17.30;6.80;;;14.90;99.90;;;-144.05;86.32;57001.75;5014737;28;20040;-80
2023/10/27 07:02:57;;;;;;;18.52;7.10;;;8.10;99.90;;;-144.05;86.34;57020.88;5015007;28;20022;-79
2023/10/27 07:05:23;;;;;;;17.73;6.53;;;8.00;99.90;;;-144.05;86.68;57001.75;5014371;28;20030;-80
2023/10/27 07:07:49;;;;;;;14.45;6.80;;;8.30;99.90;;;-144.05;86.19;57020.88;4997408;28;20032;-80
2023/10/27 07:10:16;;;;;;;22.33;6.95;;;;;;;-144.05;86.45;57016.63;5015527;28;20026;-80
2023/10/27 07:12:46;;;;;;;14.75;5.57;;;8.00;99.90;;;-144.05;86.31;57008.13;4997863;28;20037;-79
2023/10/27 07:15:13;;;;;;;13.50;6.90;;;;;;;-144.05;86.32;56980.53;5015228;28;20030;-78
2023/10/27 07:17:41;;;;;;;14.52;6.05;;;8.00;99.90;;;-144.05;86.55;56976.28;5015380;28;20491;-80
2023/10/27 07:20:08;;;;;;;14.90;6.03;;;8.20;99.90;;;-144.05;86.89;56984.78;4997521;28;20041;-79
2023/10/27 07:22:37;;;;;;;15.55;6.53;;;10.20;99.90;;;-144.05;86.74;56972.03;5015542;28;20053;-78
2023/10/27 07:25:04;;;;;;;19.02;6.97;;;8.30;99.90;;;-144.05;86.65;56999.63;5015269;28;20022;-79
2023/10/27 07:27:30;;;;;;;14.13;6.45;;;7.90;99.90;;;-144.05;86.70;57010.25;5014980;28;20575;-77
2023/10/27 07:29:56;;;;;;;16.33;7.35;;;8.50;99.90;;;-144.05;86.76;57018.75;4997720;28;20026;-81
2023/10/27 07:32:22;;;;;;;16.75;6.78;;;8.20;99.90;;;-144.05;86.75;57023.00;5015072;28;20755;-80
2023/10/27 07:34:48;;;;;;;14.75;6.80;;;14.90;99.90;;;-144.05;87.21;56991.13;5015062;28;20037;-80
2023/10/27 07:37:14;;;;;;;15.55;7.53;;;8.40;99.90;;;-144.05;86.88;57012.38;4997326;28;20061;-80
2023/10/27 07:39:40;;;;;;;18.20;7.60;;;14.80;99.90;;;-144.05;86.94;56997.50;5000986;28;20050;-83
2023/10/27 07:42:07;;;;;;;14.77;7.60;;;15.10;99.90;;;-144.05;86.80;56999.63;5024856;28;20048;-79
2023/10/27 07:44:33;;;;;;;13.88;7.20;;;;;;;-144.05;87.05;57016.63;5021350;28;20022;-79
2023/10/27 07:46:59;;;;;;;16.73;8.02;;;;;;;-144.05;87.35;56972.03;5020369;28;20034;-80
2023/10/27 07:49:26;;;;;;;22.02;8.52;;;;;;;-144.05;87.32;56999.63;5020263;28;20026;-79
2023/10/27 07:51:51;;;;;;;17.38;7.07;;;14.60;99.90;;;-144.05;87.48;56980.53;5001824;28;20444;-78
2023/10/27 07:54:18;;;;;;;19.88;8.45;;;;;;;-144.05;87.53;57001.75;4998828;28;20034;-80
2023/10/27 07:56:44;;;;;;;21.10;8.63;;;;;;;-144.05;87.41;56980.53;5016685;28;20048;-79
2023/10/27 07:59:10;;;;;;;19.02;7.93;;;15.20;99.90;;;-144.05;87.29;57008.13;5015698;28;20026;-80
2023/10/27 08:01:36;;;;;;;22.10;7.53;;;7.80;99.90;;;-144.05;87.87;57014.50;5016185;28;20084;-78
2023/10/27 08:04:06;;;;;;;21.75;8.20;;;8.10;99.90;;;-144.05;87.93;57027.25;5015954;28;20081;-81
2023/10/27 08:06:32;;;;;;;15.27;6.82;;;;;;;-144.05;87.88;56965.66;5016432;28;20033;-80
2023/10/27 08:08:59;;;;;;;17.38;7.97;;;10.40;99.90;;;-144.05;87.86;57008.13;4998865;28;20037;-81
2023/10/27 08:11:25;;;;;;;14.20;6.55;;;7.60;99.90;;;-144.05;87.81;56997.50;5015509;28;20643;-80
2023/10/27 08:13:51;;;;;;;14.82;7.38;;;;;;;-144.05;87.90;57006.00;5015551;28;20120;-79
2023/10/27 08:16:17;;;;;;;14.95;6.88;;;8.20;99.90;;;-144.05;87.95;57003.88;4997440;28;20029;-79
2023/10/27 08:18:45;;;;;;;14.23;6.72;;;7.90;99.90;;;-144.05;87.82;56974.16;5014941;28;20030;-79
2023/10/27 08:21:10;;;;;;;18.90;7.78;;;15.10;99.90;;;-144.05;87.85;57023.00;5015425;28;20491;-80
2023/10/27 08:23:36;;;;;;;21.20;7.45;;;7.70;99.90;;;-144.05;87.66;57008.13;5015095;28;20104;-79
2023/10/27 08:26:03;;;;;;;15.73;7.55;;;9.20;99.90;;;-144.05;87.69;57001.75;4996080;28;20395;-80
2023/10/27 08:28:29;;;;;;;13.60;6.97;;;;;;;-144.05;88.08;57008.13;5015717;28;20103;-81
2023/10/27 08:30:56;;;;;;;13.65;6.38;;;;;;;-144.05;88.04;56963.53;5015713;28;20044;-79
2023/10/27 08:33:23;;;;;;;14.98;6.28;;;8.00;99.90;;;-144.05;87.81;56982.66;5015638;28;20052;-78
2023/10/27 08:35:49;;;;;;;16.40;6.15;;;;;;;-144.05;87.95;56961.41;4997584;28;20116;-80
2023/10/27 08:38:16;;;;;;;13.00;6.05;;;;;;;-144.05;87.67;56997.50;5015189;28;20030;-80
2023/10/27 08:40:43;;;;;;;11.82;5.28;;;10.60;99.90;;;-144.05;87.62;56993.25;4997562;28;20026;-80
2023/10/27 08:43:10;;;;;;;11.80;5.05;;;;;;;-144.05;87.59;56978.41;5015168;28;20040;-79
2023/10/27 08:45:37;;;;;;;12.38;4.95;;;14.90;99.90;;;-144.05;87.88;57012.38;5015408;28;20030;-80
2023/10/27 08:48:03;;;;;;;8.20;4.90;;;;;;;-144.05;87.41;56963.53;5015236;28;20083;-79
2023/10/27 08:50:31;;;;;;;11.23;4.85;;;8.30;99.90;;;-144.05;87.82;57001.75;5015683;28;20033;-81
2023/10/27 08:52:58;;;;;;;7.88;4.88;;;7.60;99.90;;;-144.05;87.84;56976.28;5015650;28;20053;-78
2023/10/27 08:55:25;;;;;;;13.55;4.88;;;14.80;99.90;;;-144.05;87.63;56980.53;5015299;28;20077;-79
2023/10/27 08:57:57;;;;;;;10.50;4.38;;;14.70;99.90;;;-144.05;87.37;56984.78;4997650;28;20037;-80
2023/10/27 09:00:23;;;;;;;10.68;4.60;;;15.00;99.90;;;-144.05;86.95;57025.13;5015390;28;20030;-80
2023/10/27 09:02:49;;;;;;;10.38;4.25;;;;;;;-144.05;87.04;56989.00;5015114;28;20064;-80
2023/10/27 09:05:17;;;;;;;8.30;4.15;;;;;;;-144.05;86.72;57001.75;5015200;28;20029;-80
2023/10/27 09:07:43;;;;;;;7.50;4.13;;;;;;;-144.05;86.37;56963.53;5015517;28;20030;-80
2023/10/27 09:10:10;;;;;;;8.98;3.58;;;15.10;99.90;;;-144.05;86.50;56982.66;5015314;28;20426;-79
2023/10/27 09:12:37;;;;;;;14.98;4.65;;;8.50;99.90;;;-144.05;86.65;56995.38;4997561;28;20117;-80
2023/10/27 09:15:06;;;;;;;7.18;3.58;;;15.30;99.90;;;-144.05;86.76;56991.13;5015459;28;20022;-79
2023/10/27 09:17:51;;;;;;;8.55;3.63;;;8.40;99.90;;;-144.05;85.86;57001.75;4997763;28;20021;-81
2023/10/27 09:20:23;;;;;;;8.40;3.25;;;11.20;99.90;;;-144.05;86.31;56989.00;4997268;28;20026;-77
2023/10/27 09:23:02;;;;;;;5.25;3.45;;;11.20;99.90;;;-144.05;86.02;56986.91;5013647;28;20407;-80
2023/10/27 09:25:34;;;;;;;5.25;3.40;;;8.50;99.90;;;-144.05;85.69;56999.63;5015572;28;20164;-82
2023/10/27 09:28:05;;;;;;;7.75;2.97;;;8.30;99.90;;;-144.05;85.86;56961.41;5016211;28;20091;-81
2023/10/27 09:30:42;;;;;;;8.70;3.03;;;15.40;99.90;;;-144.05;86.11;57006.00;5016127;28;20034;-81
2023/10/27 09:33:27;;;;;;;5.15;3.05;;;8.00;99.90;;;-144.05;85.68;56976.28;5016644;28;20030;-82
2023/10/27 09:35:54;;;;;;;8.55;2.80;;;;;;;-144.05;85.31;56997.50;5016546;28;20029;-79
2023/10/27 09:38:22;;;;;;;5.68;2.83;;;11.50;99.90;;;-144.05;85.32;57010.25;4999999;28;20030;-82
2023/10/27 09:40:49;;;;;;;5.88;2.90;;;15.30;99.90;;;-144.05;85.26;56993.25;4999262;28;20044;-81
2023/10/27 09:43:25;;;;;;;6.63;2.13;;;11.60;99.90;;;-144.05;84.53;56980.53;5020949;28;20431;-78
2023/10/27 09:45:55;;;;;;;;;;;11.60;99.90;;;-144.05;83.99;56999.63;5032760;28;20041;-82
2023/10/27 09:48:30;;;;;;;6.13;2.20;;;8.40;99.90;;;-144.05;84.29;57008.13;5030814;28;19962;-81
2023/10/27 09:51:09;;;;;;;4.70;1.90;;;15.10;99.90;;;-144.05;84.72;57014.50;5028161;28;20033;-80
2023/10/27 09:53:37;;;;;;;4.40;1.70;;;8.60;99.90;;;-144.05;84.00;56989.00;5015394;28;20033;-81
2023/10/27 09:56:03;;;;;;;3.15;1.95;;;;;;;-144.05;83.82;56997.50;5014309;28;20064;-80
2023/10/27 09:58:34;;;;;;;5.20;1.98;;;11.60;99.90;;;-144.05;83.63;57025.13;4997385;28;20026;-83
2023/10/27 10:01:04;;;;;;;5.72;1.92;;;8.30;99.90;;;-144.05;84.49;57003.88;5014408;28;20038;-80
2023/10/27 10:03:32;;;;;;;4.82;1.77;;;;;;;-144.05;84.63;56976.28;5015633;28;20092;-80
2023/10/27 10:06:17;;;;;;;3.80;1.90;;;8.60;99.90;;;-144.05;84.71;57001.75;4999361;28;20073;-80
2023/10/27 10:09:09;;;;;;;3.63;1.50;;;8.50;99.90;;;-144.05;86.35;57006.00;5018511;28;20089;-81
2023/10/27 10:11:50;;;;;;;3.25;1.52;;;8.10;99.90;;;-144.05;86.72;56989.00;5018514;28;20090;-80
2023/10/27 10:14:39;;;;;;;1.50;0.93;;;8.40;99.90;;;-144.05;86.54;56993.25;5002055;28;20038;-82
2023/10/27 10:17:05;;;;;;;2.10;1.45;;;8.30;99.90;;;-144.05;86.44;56986.91;5002393;28;20048;-81
2023/10/27 10:19:55;;;;;;;2.65;1.02;;;8.50;99.90;;;-144.05;87.35;57001.75;5001600;28;20038;-83
2023/10/27 10:22:44;;;;;;;2.28;0.85;;;8.50;99.90;;;-144.05;86.20;56967.78;5018709;28;20030;-81